Time;durP1;ratioP1;P1;durP2;ratioP2;P2;SDS_P1;SDS_P2;PMS_P1;PMS_P2;Temp;Humidity;BMP_temperature;BMP_pressure;BME280_temperature;BME280_humidity;BME280_pressure;Samples;Min_cycle;Max_cycle;Signal;HPM_P1;HPM_P2
2023/07/22 00:02:26;;;;;;;3.20;2.88;;;;;;;19.27;77.27;95669.06;4929787;29;20227;-89
2023/07/22 00:04:53;;;;;;;3.35;2.90;;;;;;;19.30;77.44;95671.22;4926054;29;20725;-89
2023/07/22 00:07:19;;;;;;;9.07;3.15;;;;;;;19.33;77.36;95660.31;4934102;29;20708;-89
2023/07/22 00:09:46;;;;;;;6.38;3.25;;;;;;;19.35;77.59;95667.91;4933963;29;20212;-88
2023/07/22 00:12:12;;;;;;;4.03;3.17;;;;;;;19.34;77.52;95667.13;4933813;29;20225;-89
2023/07/22 00:14:41;;;;;;;3.20;2.90;;;;;;;19.31;77.76;95667.56;4933729;29;20240;-89
2023/07/22 00:17:08;;;;;;;3.85;2.85;;;;;;;19.32;78.06;95679.63;4931269;29;20233;-88
2023/07/22 00:19:36;;;;;;;3.83;2.80;;;;;;;19.36;78.16;95665.09;4929270;29;20217;-89
2023/07/22 00:22:03;;;;;;;3.20;2.90;;;;;;;19.39;77.78;95663.84;4932827;29;20233;-89
2023/07/22 00:24:30;;;;;;;5.68;3.28;;;;;;;19.37;77.89;95664.06;4933636;29;20212;-89
2023/07/22 00:27:02;;;;;;;3.60;3.17;;;;;;;19.32;78.29;95677.78;4933618;29;20221;-91
2023/07/22 00:29:29;;;;;;;4.65;3.92;;;;;;;19.31;78.52;95680.63;4933762;29;20652;-90
2023/07/22 00:31:55;;;;;;;4.35;3.58;;;;;;;19.28;78.81;95681.88;4933475;29;20229;-89
2023/07/22 00:34:23;;;;;;;5.07;4.57;;;;;;;19.19;79.08;95692.91;4931548;29;20201;-89
2023/07/22 00:36:51;;;;;;;4.55;3.78;;;;;;;19.16;79.81;95698.56;4923094;29;20630;-89
2023/07/22 00:39:18;;;;;;;4.47;4.07;;;;;;;19.01;80.56;95708.69;4933954;29;20210;-89
2023/07/22 00:41:48;;;;;;;3.97;3.63;;;;;;;18.97;81.17;95708.31;4932380;29;20225;-89
2023/07/22 00:44:17;;;;;;;4.25;3.20;;;;;;;18.98;80.93;95704.69;4932993;29;20206;-88
2023/07/22 00:46:43;;;;;;;3.90;3.53;;;;;;;18.99;80.57;95701.06;4933109;29;20205;-90
2023/07/22 00:49:11;;;;;;;4.55;4.10;;;;;;;19.05;80.17;95688.94;4931194;29;20583;-90
2023/07/22 00:51:38;;;;;;;3.60;3.30;;;;;;;19.03;80.08;95689.16;4921185;29;20313;-89
2023/07/22 00:54:06;;;;;;;3.50;3.20;;;;;;;19.03;80.23;95685.75;4916788;29;20202;-88
2023/07/22 00:56:36;;;;;;;4.10;3.70;;;;;;;19.08;79.37;95665.78;4933523;29;20206;-89
2023/07/22 00:59:03;;;;;;;4.07;2.85;;;;;;;19.07;78.61;95648.53;4932896;29;20216;-89
2023/07/22 01:01:29;;;;;;;6.03;3.95;;;;;;;19.05;78.80;95641.97;4924531;29;20221;-90
2023/07/22 01:03:56;;;;;;;4.25;3.85;;;;;;;19.00;78.80;95639.25;4930854;29;20202;-89
2023/07/22 01:06:24;;;;;;;4.63;3.42;;;;;;;18.99;78.73;95628.00;4922075;29;20310;-88
2023/07/22 01:08:51;;;;;;;5.43;3.42;;;;;;;18.88;79.54;95649.66;4932694;29;20209;-90
2023/07/22 01:11:18;;;;;;;4.85;3.67;;;;;;;18.87;79.45;95648.06;4932042;29;20213;-88
2023/07/22 01:13:45;;;;;;;4.40;4.00;;;;;;;18.80;80.13;95661.25;4932111;29;20209;-88
2023/07/22 01:16:11;;;;;;;5.28;3.05;;;;;;;18.76;80.29;95670.53;4932236;29;20208;-89
2023/07/22 01:18:38;;;;;;;4.53;3.38;;;;;;;18.78;80.19;95659.88;4932547;29;20220;-89
2023/07/22 01:21:07;;;;;;;4.65;3.63;;;;;;;18.79;79.86;95664.06;4931544;29;20611;-88
2023/07/22 01:23:36;;;;;;;3.70;3.30;;;;;;;18.73;79.96;95651.91;4928986;29;20209;-89
2023/07/22 01:26:03;;;;;;;3.33;3.03;;;;;;;18.67;80.21;95660.63;4933108;29;20221;-89
2023/07/22 01:28:30;;;;;;;5.32;3.53;;;;;;;18.67;80.05;95661.44;4931714;29;20198;-89
2023/07/22 01:30:56;;;;;;;5.88;3.35;;;;;;;18.58;79.90;95668.78;4931950;29;20229;-88
2023/07/22 01:33:23;;;;;;;3.78;3.00;;;;;;;18.56;80.13;95665.59;4931319;29;20326;-89
2023/07/22 01:35:50;;;;;;;3.47;2.92;;;;;;;18.47;80.98;95695.59;4932033;29;20194;-89
2023/07/22 01:38:16;;;;;;;3.30;3.00;;;;;;;18.41;81.09;95685.28;4930358;29;20694;-89
2023/07/22 01:40:44;;;;;;;3.33;3.03;;;;;;;18.34;81.78;95700.22;4923607;29;20210;-88
2023/07/22 01:43:10;;;;;;;3.17;2.83;;;;;;;18.35;81.64;95710.41;4931730;29;20228;-89
2023/07/22 01:45:38;;;;;;;4.80;3.47;;;;;;;18.47;81.46;95697.44;4931691;29;20233;-89
2023/07/22 01:48:06;;;;;;;3.47;3.20;;;;;;;18.49;81.35;95700.59;4931597;29;20202;-88
2023/07/22 01:50:32;;;;;;;3.38;3.08;;;;;;;18.45;82.71;95730.75;4931754;29;20209;-89
2023/07/22 01:52:59;;;;;;;4.07;3.30;;;;;;;18.56;82.14;95724.78;4931231;29;20228;-89
2023/07/22 01:55:25;;;;;;;6.57;3.63;;;;;;;18.63;82.26;95728.91;4930164;29;20197;-89
2023/07/22 01:57:53;;;;;;;5.50;2.95;;;;;;;18.67;82.16;95721.41;4932656;29;20205;-88
2023/07/22 02:00:21;;;;;;;4.05;3.15;;;;;;;18.63;83.19;95746.38;4931247;29;20212;-88
2023/07/22 02:02:47;;;;;;;3.20;3.00;;;;;;;18.67;82.63;95731.84;4930720;29;20279;-89
2023/07/22 02:05:14;;;;;;;5.97;3.20;;;;;;;18.67;82.91;95733.66;4931503;29;20221;-88
2023/07/22 02:07:40;;;;;;;3.60;3.20;;;;;;;18.63;83.88;95743.78;4931314;29;20202;-89
2023/07/22 02:10:08;;;;;;;4.63;3.13;;;;;;;18.69;83.21;95734.25;4929796;29;20210;-89
2023/07/22 02:12:34;;;;;;;3.90;3.50;;;;;;;18.76;82.91;95738.34;4930877;29;20226;-88
2023/07/22 02:15:07;;;;;;;3.30;3.10;;;;;;;18.83;82.43;95733.03;4931389;29;20205;-89
2023/07/22 02:17:34;;;;;;;3.88;3.45;;;;;;;18.85;82.61;95736.22;4930311;29;20304;-89
2023/07/22 02:20:01;;;;;;;4.75;2.85;;;;;;;18.89;82.23;95732.13;4931179;29;20284;-89
2023/07/22 02:22:27;;;;;;;3.25;3.05;;;;;;;18.91;81.87;95722.25;4930473;29;20217;-89
2023/07/22 02:24:53;;;;;;;3.30;2.95;;;;;;;18.86;81.96;95722.94;4930933;29;20224;-88
2023/07/22 02:27:20;;;;;;;3.25;2.65;;;;;;;18.83;82.06;95722.59;4929198;29;20205;-88
2023/07/22 02:29:46;;;;;;;3.10;2.85;;;;;;;18.84;82.09;95719.78;4932067;29;20205;-88
2023/07/22 02:32:14;;;;;;;4.72;3.13;;;;;;;18.90;81.59;95718.88;4930445;29;20237;-88
2023/07/22 02:34:41;;;;;;;3.20;2.83;;;;;;;18.92;81.72;95716.81;4931236;29;20211;-90
2023/07/22 02:37:07;;;;;;;5.57;2.63;;;;;;;18.89;81.86;95714.66;4930950;29;20217;-89
2023/07/22 02:39:34;;;;;;;3.75;2.97;;;;;;;18.88;82.13;95720.09;4930703;29;20213;-88
2023/07/22 02:42:01;;;;;;;3.88;3.15;;;;;;;18.79;82.61;95737.91;4929542;29;20221;-89
2023/07/22 02:44:30;;;;;;;3.05;2.75;;;;;;;18.80;82.62;95733.50;4930238;29;20714;-89
2023/07/22 02:46:59;;;;;;;2.90;2.70;;;;;;;18.81;82.52;95722.84;4930773;29;20229;-88
2023/07/22 02:49:27;;;;;;;3.33;3.03;;;;;;;18.78;82.82;95738.94;4931308;29;20216;-89
2023/07/22 02:51:53;;;;;;;3.53;2.85;;;;;;;18.81;82.61;95732.47;4930062;29;20229;-88
2023/07/22 02:54:20;;;;;;;4.20;3.10;;;;;;;18.83;82.86;95739.06;4930618;29;20208;-88
2023/07/22 02:56:46;;;;;;;3.58;3.30;;;;;;;18.88;82.73;95730.53;4930600;29;20201;-89
2023/07/22 02:59:13;;;;;;;3.53;3.22;;;;;;;18.93;82.48;95743.72;4926655;29;20571;-89
2023/07/22 03:01:40;;;;;;;3.58;3.28;;;;;;;18.84;83.35;95753.69;4923263;29;20289;-88
2023/07/22 03:04:06;;;;;;;4.38;3.38;;;;;;;18.77;83.61;95762.63;4930870;29;20561;-88
2023/07/22 03:06:34;;;;;;;3.15;2.92;;;;;;;18.82;83.42;95767.97;4930686;29;20598;-89
2023/07/22 03:09:01;;;;;;;3.70;3.22;;;;;;;18.80;83.93;95768.19;4930055;29;20197;-88
2023/07/22 03:11:27;;;;;;;4.20;3.13;;;;;;;18.66;85.96;95797.31;4930348;29;20210;-89
2023/07/22 03:13:54;;;;;;;3.95;3.10;;;;;;;18.73;85.52;95796.19;4930431;29;20198;-89
2023/07/22 03:16:21;;;;;;;3.55;3.10;;;;;;;18.75;85.19;95793.34;4930913;29;20738;-89
2023/07/22 03:18:47;;;;;;;3.33;3.13;;;;;;;18.71;85.24;95793.00;4934470;29;20220;-88
2023/07/22 03:21:13;;;;;;;4.03;3.40;;;;;;;18.76;85.01;95784.50;4933110;29;20204;-89
2023/07/22 03:23:41;;;;;;;3.50;3.20;;;;;;;18.80;84.41;95770.00;4933572;29;20201;-88
2023/07/22 03:26:08;;;;;;;4.95;3.40;;;;;;;18.84;84.45;95769.34;4934387;29;20225;-90
2023/07/22 03:28:35;;;;;;;4.93;3.42;;;;;;;18.88;83.89;95764.44;4934106;29;20209;-88
2023/07/22 03:31:01;;;;;;;4.35;2.95;;;;;;;18.90;83.67;95763.22;4930795;29;20206;-89
2023/07/22 03:33:28;;;;;;;3.78;2.80;;;;;;;18.93;83.30;95752.34;4925182;29;20233;-88
2023/07/22 03:35:55;;;;;;;4.00;2.95;;;;;;;18.93;83.21;95752.34;4933984;29;20193;-88
2023/07/22 03:38:21;;;;;;;3.33;2.90;;;;;;;18.91;82.86;95746.53;4933820;29;20574;-89
2023/07/22 03:40:49;;;;;;;3.28;2.97;;;;;;;18.90;82.53;95752.78;4934133;29;20206;-89
2023/07/22 03:43:16;;;;;;;3.10;2.90;;;;;;;18.84;82.80;95756.31;4933612;29;20607;-88
2023/07/22 03:45:42;;;;;;;3.38;2.90;;;;;;;18.80;82.81;95764.78;4933530;29;20221;-88
2023/07/22 03:48:09;;;;;;;4.47;3.40;;;;;;;18.74;82.78;95753.44;4932747;29;20293;-89
2023/07/22 03:50:35;;;;;;;4.05;3.30;;;;;;;18.72;82.86;95758.06;4933543;29;20213;-88
2023/07/22 03:53:02;;;;;;;3.00;2.80;;;;;;;18.74;83.21;95760.47;4933169;29;20222;-89
2023/07/22 03:55:31;;;;;;;3.03;2.70;;;;;;;18.64;84.12;95787.09;4934047;29;20205;-88
2023/07/22 03:57:58;;;;;;;4.22;3.22;;;;;;;18.62;84.12;95791.72;4935175;29;20236;-87
2023/07/22 04:00:25;;;;;;;3.60;3.05;;;;;;;18.67;83.44;95776.19;4933494;29;20705;-88
2023/07/22 04:02:52;;;;;;;3.95;3.00;;;;;;;18.55;84.19;95786.56;4932284;29;20262;-88
2023/07/22 04:05:18;;;;;;;3.50;3.20;;;;;;;18.51;84.96;95797.66;4933509;29;20212;-88
2023/07/22 04:07:45;;;;;;;5.43;3.00;;;;;;;18.45;85.03;95801.16;4933893;29;20228;-87
2023/07/22 04:10:12;;;;;;;7.03;3.28;;;;;;;18.43;85.27;95811.81;4934134;29;20300;-88
2023/07/22 04:12:38;;;;;;;3.35;3.05;;;;;;;18.36;85.63;95815.50;4933418;29;20225;-87
2023/07/22 04:15:07;;;;;;;3.47;2.97;;;;;;;18.39;85.31;95818.47;4932777;29;20245;-87
2023/07/22 04:17:33;;;;;;;3.35;3.05;;;;;;;18.45;84.74;95808.97;4933386;29;20575;-87
2023/07/22 04:20:00;;;;;;;5.15;3.20;;;;;;;18.50;84.33;95809.88;4931891;29;20206;-87
2023/07/22 04:22:26;;;;;;;4.90;3.58;;;;;;;18.45;84.36;95804.56;4931888;29;20232;-89
2023/07/22 04:24:53;;;;;;;3.50;3.20;;;;;;;18.47;84.28;95810.31;4933298;29;20216;-87
2023/07/22 04:27:19;;;;;;;3.90;3.22;;;;;;;18.51;83.71;95798.44;4932223;29;20602;-87
2023/07/22 04:29:46;;;;;;;4.70;3.35;;;;;;;18.56;83.79;95805.63;4928049;29;20209;-88
2023/07/22 04:32:14;;;;;;;4.28;2.92;;;;;;;18.64;83.37;95781.88;4913897;29;20246;-86
2023/07/22 04:34:40;;;;;;;3.53;2.83;;;;;;;18.65;83.23;95783.47;4914466;29;20591;-87
2023/07/22 04:37:07;;;;;;;3.35;3.05;;;;;;;18.67;83.14;95784.00;4931178;29;20241;-87
2023/07/22 04:39:34;;;;;;;3.75;3.38;;;;;;;18.68;83.24;95779.59;4933129;29;20229;-87
2023/07/22 04:42:00;;;;;;;3.30;3.00;;;;;;;18.77;82.85;95770.44;4933192;29;20268;-87
2023/07/22 04:44:26;;;;;;;4.18;3.50;;;;;;;18.82;82.65;95760.16;4932766;29;20619;-87
2023/07/22 04:46:53;;;;;;;3.72;3.38;;;;;;;18.85;82.95;95770.16;4924468;29;20217;-87
2023/07/22 04:49:21;;;;;;;3.25;2.95;;;;;;;18.94;82.57;95768.78;4933365;29;20627;-88
2023/07/22 04:51:48;;;;;;;3.15;2.85;;;;;;;18.94;82.43;95766.19;4930719;29;20230;-88
2023/07/22 04:54:15;;;;;;;3.22;2.92;;;;;;;18.93;81.79;95754.94;4930728;29;20573;-88
2023/07/22 04:56:42;;;;;;;5.32;2.90;;;;;;;18.96;81.46;95741.44;4932464;29;20622;-87
2023/07/22 04:59:08;;;;;;;3.63;3.33;;;;;;;18.96;81.31;95751.88;4930601;29;20226;-87
2023/07/22 05:01:36;;;;;;;7.00;5.13;;;;;;;19.00;81.39;95757.47;4932711;29;20229;-87
2023/07/22 05:04:04;;;;;;;14.38;12.88;;;;;;;19.04;81.91;95766.44;4932206;29;20212;-87
2023/07/22 05:06:32;;;;;;;3.80;3.50;;;;;;;19.03;81.55;95740.56;4932520;29;20213;-86
2023/07/22 05:08:59;;;;;;;3.13;2.85;;;;;;;19.05;80.99;95738.53;4930893;29;20265;-87
2023/07/22 05:11:25;;;;;;;3.90;3.28;;;;;;;19.14;81.54;95750.22;4926238;29;20209;-89
2023/07/22 05:13:52;;;;;;;3.25;2.88;;;;;;;19.32;81.89;95763.16;4913006;29;20225;-92
2023/07/22 05:16:18;;;;;;;3.70;3.33;;;;;;;19.41;80.04;95737.53;4912959;29;20202;-87
2023/07/22 05:18:45;;;;;;;2.95;2.65;;;;;;;19.36;79.56;95732.97;4913014;29;20213;-87
2023/07/22 05:21:11;;;;;;;2.75;2.55;;;;;;;19.37;80.45;95754.66;4912491;29;20728;-88
2023/07/22 05:23:39;;;;;;;5.18;2.95;;;;;;;19.40;80.15;95751.59;4915729;29;20266;-88
2023/07/22 05:26:06;;;;;;;4.90;2.78;;;;;;;19.45;79.55;95746.47;4933672;29;20239;-86
2023/07/22 05:28:32;;;;;;;3.35;2.95;;;;;;;19.48;79.20;95730.34;4933673;29;20715;-85
2023/07/22 05:30:58;;;;;;;3.22;2.92;;;;;;;19.48;78.75;95712.06;4933295;29;20225;-86
2023/07/22 05:33:25;;;;;;;3.35;2.92;;;;;;;19.42;79.63;95726.06;4931965;29;20273;-85
2023/07/22 05:35:51;;;;;;;8.95;3.97;;;;;;;19.41;79.15;95721.84;4931288;29;20667;-86
2023/07/22 05:38:18;;;;;;;14.15;6.13;;;;;;;19.32;81.33;95753.50;4931281;29;20225;-85
2023/07/22 05:40:45;;;;;;;16.67;5.55;;;;;;;19.45;82.39;95788.25;4929561;29;20209;-85
2023/07/22 05:43:12;;;;;;;6.90;3.55;;;;;;;19.58;79.72;95746.28;4927347;29;20261;-86
2023/07/22 05:45:38;;;;;;;4.70;3.28;;;;;;;19.55;80.00;95744.91;4932188;29;20343;-86
2023/07/22 05:48:05;;;;;;;4.28;3.40;;;;;;;19.55;78.72;95707.56;4930435;29;20273;-85
2023/07/22 05:50:32;;;;;;;7.68;6.90;;;;;;;19.56;78.38;95696.09;4932950;29;20202;-86
2023/07/22 05:52:58;;;;;;;4.35;3.92;;;;;;;19.56;78.76;95704.72;4932923;29;20217;-85
2023/07/22 05:55:25;;;;;;;4.97;3.95;;;;;;;19.56;78.36;95699.50;4932140;29;20205;-85
2023/07/22 05:57:52;;;;;;;5.63;3.13;;;;;;;19.62;78.19;95706.41;4931433;29;20206;-86
2023/07/22 06:00:19;;;;;;;3.17;2.85;;;;;;;19.69;77.73;95697.66;4934079;29;20296;-86
2023/07/22 06:02:45;;;;;;;3.00;2.70;;;;;;;19.73;76.26;95668.22;4932835;29;20237;-85
2023/07/22 06:05:12;;;;;;;3.38;2.70;;;;;;;19.74;75.56;95661.19;4932870;29;20206;-85
2023/07/22 06:07:38;;;;;;;2.97;2.67;;;;;;;19.80;75.09;95636.75;4933383;29;20236;-86
2023/07/22 06:10:06;;;;;;;3.85;2.67;;;;;;;19.77;73.82;95618.91;4931366;29;20212;-88
2023/07/22 06:12:32;;;;;;;2.78;2.58;;;;;;;19.71;73.32;95598.94;4927570;29;20229;-87
2023/07/22 06:15:00;;;;;;;2.90;2.60;;;;;;;19.70;73.07;95599.97;4932206;29;20245;-89
2023/07/22 06:17:26;;;;;;;2.85;2.65;;;;;;;19.77;73.63;95631.97;4932172;29;20206;-87
2023/07/22 06:19:53;;;;;;;4.50;2.97;;;;;;;19.82;74.21;95632.84;4931768;29;20268;-88
2023/07/22 06:22:19;;;;;;;2.75;2.30;;;;;;;19.90;74.21;95642.16;4930506;29;20233;-88
2023/07/22 06:24:48;;;;;;;5.53;2.70;;;;;;;20.01;73.66;95629.00;4931458;29;20232;-87
2023/07/22 06:27:14;;;;;;;3.00;2.55;;;;;;;20.11;72.75;95614.56;4931694;29;20731;-88
2023/07/22 06:29:40;;;;;;;3.85;2.67;;;;;;;20.13;73.16;95623.75;4932487;29;20201;-86
2023/07/22 06:32:09;;;;;;;11.38;8.88;;;;;;;20.21;72.63;95619.94;4932398;29;20240;-87
2023/07/22 06:34:35;;;;;;;6.25;5.65;;;;;;;20.25;71.80;95590.47;4930554;29;20205;-86
2023/07/22 06:37:01;;;;;;;3.20;2.90;;;;;;;20.29;70.21;95559.44;4928104;29;20244;-89
2023/07/22 06:39:28;;;;;;;2.50;2.30;;;;;;;20.31;70.06;95544.28;4919868;29;20202;-89
2023/07/22 06:41:54;;;;;;;3.72;2.20;;;;;;;20.45;69.87;95542.19;4912376;29;20268;-88
2023/07/22 06:44:25;;;;;;;2.88;2.40;;;;;;;20.52;68.87;95516.66;4929846;29;20212;-89
2023/07/22 06:46:52;;;;;;;2.78;2.20;;;;;;;20.44;66.85;95455.06;4913451;29;20249;-90
2023/07/22 06:49:19;;;;;;;2.33;2.05;;;;;;;20.47;66.20;95433.66;4929577;29;20680;-89
2023/07/22 06:51:46;;;;;;;2.92;2.15;;;;;;;20.54;66.60;95450.00;4928389;29;20233;-90
2023/07/22 06:54:12;;;;;;;22.95;20.85;;;;;;;20.54;65.44;95420.41;4930345;29;20205;-88
2023/07/22 06:56:39;;;;;;;6.95;6.22;;;;;;;20.58;65.19;95405.84;4930337;29;20213;-88
2023/07/22 06:59:08;;;;;;;3.17;2.80;;;;;;;20.63;64.16;95372.66;4929881;29;20197;-89
2023/07/22 07:01:35;;;;;;;4.55;2.30;;;;;;;20.73;63.22;95339.81;4930316;29;20336;-88
2023/07/22 07:04:01;;;;;;;3.60;2.20;;;;;;;20.80;63.39;95337.75;4930242;29;20205;-90
2023/07/22 07:06:30;;;;;;;2.50;2.30;;;;;;;20.86;63.90;95366.38;4928933;29;20197;-90
2023/07/22 07:08:57;;;;;;;4.55;2.17;;;;;;;20.94;62.89;95329.28;4923780;29;20201;-89
2023/07/22 07:11:26;;;;;;;2.17;1.95;;;;;;;20.93;62.13;95303.38;4928828;29;20209;-89
2023/07/22 07:13:52;;;;;;;2.10;1.90;;;;;;;21.03;63.06;95327.78;4930773;29;20209;-89
2023/07/22 07:16:24;;;;;;;1.80;1.70;;;;;;;21.16;63.22;95349.38;4931490;29;20261;-89
2023/07/22 07:18:50;;;;;;;3.97;2.30;;;;;;;21.25;63.68;95369.66;4931590;29;20586;-89
2023/07/22 07:21:17;;;;;;;4.03;2.10;;;;;;;21.22;62.72;95322.22;4930378;29;20205;-90
2023/07/22 07:23:48;;;;;;;2.88;1.95;;;;;;;21.19;59.83;95213.50;4930805;29;20208;-89
2023/07/22 07:26:15;;;;;;;2.25;1.90;;;;;;;21.18;60.08;95232.88;4924143;29;20221;-89
2023/07/22 07:28:42;;;;;;;3.00;2.15;;;;;;;21.24;59.46;95190.00;4917255;29;20313;-89
2023/07/22 07:31:11;;;;;;;2.10;1.90;;;;;;;21.34;59.12;95189.28;4932031;29;20201;-90
2023/07/22 07:33:37;;;;;;;1.73;1.63;;;;;;;21.48;58.32;95151.13;4891996;29;1068944;-90
2023/07/22 07:36:04;;;;;;;1.95;1.80;;;;;;;21.52;58.79;95194.09;4927852;29;20213;-89
2023/07/22 07:38:32;;;;;;;1.85;1.70;;;;;;;21.59;59.11;95188.63;4931833;29;20257;-89
2023/07/22 07:41:08;;;;;;;1.90;1.60;;;;;;;21.73;58.87;95187.13;4930248;29;20260;-89
2023/07/22 07:43:36;;;;;;;1.90;1.80;;;;;;;21.68;57.59;95134.69;4931838;29;20221;-89
2023/07/22 07:46:21;;;;;;;1.98;1.77;;;;;;;21.70;58.75;95180.56;4932209;29;20206;-89
2023/07/22 07:48:55;;;;;;;1.70;1.60;;;;;;;21.76;58.02;95154.34;4931890;29;20233;-90
2023/07/22 07:51:24;;;;;;;5.30;2.00;;;;;;;21.74;55.76;95056.91;4931530;29;20197;-90
2023/07/22 07:53:59;;;;;;;2.00;1.80;;;;;;;21.81;55.53;95042.47;4931430;29;20210;-89
2023/07/22 07:56:27;;;;;;;2.05;1.85;;;;;;;21.93;55.90;95065.84;4930910;29;20725;-90
2023/07/22 07:58:56;;;;;;;2.83;2.20;;;;;;;22.12;56.44;95081.88;4931425;29;20615;-89
2023/07/22 08:01:23;;;;;;;2.10;1.90;;;;;;;22.14;57.98;95174.97;4933480;29;20205;-90
2023/07/22 08:03:54;;;;;;;2.40;2.13;;;;;;;22.12;58.00;95190.19;4934816;29;20841;-89
2023/07/22 08:06:22;;;;;;;2.20;2.00;;;;;;;22.28;57.78;95170.81;4935092;29;20205;-89
2023/07/22 08:08:49;;;;;;;2.50;2.30;;;;;;;22.31;57.25;95125.69;4934991;29;20227;-89
2023/07/22 08:11:16;;;;;;;4.15;3.22;;;;;;;22.38;56.80;95114.94;4935025;29;20216;-90
2023/07/22 08:13:45;;;;;;;3.05;2.47;;;;;;;22.59;55.89;95073.75;4932890;29;20198;-92
2023/07/22 08:16:26;;;;;;;;;;;;;;;;;;;;;
2023/07/22 08:18:53;;;;;;;2.90;2.70;;;;;;;22.85;55.64;95067.44;4916950;29;20298;-90
2023/07/22 08:21:23;;;;;;;2.97;1.92;;;;;;;22.92;53.39;94975.25;4932927;29;20205;-89
2023/07/22 08:24:07;;;;;;;;;;;;;;;;;;;;;
2023/07/22 08:26:36;;;;;;;2.22;2.03;;;;;;;22.73;52.10;94904.94;4933235;29;20213;-90
2023/07/22 08:29:12;;;;;;;2.08;1.75;;;;;;;22.75;52.29;94923.84;4930446;29;20701;-90
2023/07/22 08:31:38;;;;;;;2.28;1.83;;;;;;;22.98;53.00;94946.09;4922718;29;20652;-89
2023/07/22 08:40:43;;;;;;;3.97;1.92;;;;;;;23.31;51.58;94880.78;4886296;29;20249;-89
2023/07/22 08:44:12;;;;;;;1.90;1.50;;;;;;;23.34;48.36;94720.75;4933912;29;20504;-90
2023/07/22 08:46:43;;;;;;;1.92;1.45;;;;;;;23.41;48.47;94709.94;4912504;29;20205;-89
2023/07/22 08:56:13;;;;;;;1.80;1.60;;;;;;;23.81;47.71;94692.19;4873609;29;20291;-89
2023/07/22 08:59:05;;;;;;;2.17;1.92;;;;;;;24.08;47.74;94679.22;4918040;29;20232;-90
2023/07/22 09:02:05;;;;;;;1.80;1.60;;;;;;;24.16;45.38;94575.22;4932558;29;20216;-89
2023/07/22 09:05:00;;;;;;;1.40;1.30;;;;;;;24.11;45.49;94557.66;4934790;29;20209;-89
2023/07/22 09:07:27;;;;;;;2.47;1.65;;;;;;;24.19;45.99;94579.94;4933524;29;20286;-91
2023/07/22 09:10:16;;;;;;;1.50;1.40;;;;;;;24.49;45.12;94568.16;4935233;29;20205;-90
2023/07/22 09:16:13;;;;;;;1.60;1.50;;;;;;;24.76;44.82;94528.75;5130627;23;20604;-90
2023/07/22 09:30:30;;;;;;;2.10;1.67;;;;;;;24.92;42.23;94406.25;4923362;28;20208;-90
2023/07/22 09:33:59;;;;;;;;;;;;;;;;;;;;;
2023/07/22 09:36:30;;;;;;;1.63;1.50;;;;;;;25.20;41.79;94345.63;4891078;29;20223;-90
2023/07/22 09:47:09;;;;;;;1.40;1.30;;;;;;;24.96;37.42;94116.78;4746336;30;20212;-90
2023/07/22 09:49:50;;;;;;;2.22;1.40;;;;;;;25.05;39.36;94207.91;4828761;29;20292;-90
2023/07/22 09:53:02;;;;;;;1.60;1.50;;;;;;;25.23;39.83;94237.00;4837687;29;20554;-90
2023/07/22 09:59:14;;;;;;;1.75;1.52;;;;;;;25.77;39.50;94239.34;4871049;29;20261;-90
2023/07/22 10:02:02;;;;;;;1.58;1.40;;;;;;;25.85;39.60;94251.00;4913681;29;20747;-89
2023/07/22 10:04:48;;;;;;;2.03;1.27;;;;;;;25.90;39.12;94210.53;4905443;29;20300;-91
2023/07/22 10:07:38;;;;;;;1.40;1.30;;;;;;;25.99;36.76;94098.66;4907427;29;20219;-91
2023/07/22 10:10:05;;;;;;;1.40;1.30;;;;;;;26.20;37.90;94135.78;4895176;29;20214;-90
2023/07/22 10:13:07;;;;;;;3.00;1.67;;;;;;;26.19;37.60;94142.13;4894533;29;20223;-90
2023/07/22 10:15:46;;;;;;;2.85;1.70;;;;;;;26.25;38.50;94193.69;4895040;29;20199;-91
2023/07/22 10:18:22;;;;;;;2.97;1.40;;;;;;;26.30;37.80;94135.50;4894830;29;20237;-89
2023/07/22 10:20:49;;;;;;;3.08;1.40;;;;;;;26.25;36.55;94074.16;4895786;29;20179;-89
2023/07/22 10:23:47;;;;;;;2.00;1.50;;;;;;;26.36;37.08;94107.13;4893747;29;20238;-90
2023/07/22 10:26:16;;;;;;;3.15;1.70;;;;;;;26.52;37.24;94113.47;4912792;29;20214;-89
2023/07/22 10:28:44;;;;;;;1.50;1.40;;;;;;;26.51;37.02;94079.44;4907499;29;20222;-90
2023/07/22 10:31:12;;;;;;;1.60;1.45;;;;;;;26.60;36.70;94094.19;4894356;29;20218;-89
2023/07/22 10:33:39;;;;;;;2.40;1.42;;;;;;;26.56;36.46;94066.06;4893475;29;20720;-89
2023/07/22 10:36:08;;;;;;;2.33;1.55;;;;;;;26.56;36.26;94066.06;4894845;29;20210;-91
2023/07/22 10:38:38;;;;;;;2.22;1.48;;;;;;;26.36;37.24;94089.38;4894999;29;20213;-89
2023/07/22 10:41:13;;;;;;;1.40;1.30;;;;;;;25.90;36.93;94078.66;4911224;29;20242;-89
2023/07/22 10:43:40;;;;;;;2.00;1.50;;;;;;;25.66;37.84;94127.31;4912663;29;20285;-89
2023/07/22 10:46:09;;;;;;;1.60;1.50;;;;;;;25.50;38.81;94160.41;4912438;29;20206;-89
2023/07/22 10:48:43;;;;;;;2.75;1.70;;;;;;;25.91;38.26;94201.53;4912044;29;20229;-89
2023/07/22 10:51:12;;;;;;;1.50;1.40;;;;;;;26.38;37.89;94139.22;4912573;29;20276;-90
2023/07/22 10:53:44;;;;;;;1.35;1.25;;;;;;;26.71;36.80;94110.47;4909806;29;20233;-92
2023/07/22 10:56:16;;;;;;;1.35;1.25;;;;;;;26.67;36.45;94077.88;4911654;29;20216;-87
2023/07/22 10:59:00;;;;;;;1.52;1.42;;;;;;;26.39;36.44;94067.66;4911563;29;20672;-86
2023/07/22 11:01:40;;;;;;;1.85;1.40;;;;;;;26.12;37.28;94081.16;4906912;29;20246;-87
2023/07/22 11:04:24;;;;;;;1.70;1.60;;;;;;;26.10;37.90;94117.63;4893350;29;20191;-89
2023/07/22 11:06:58;;;;;;;2.22;1.60;;;;;;;26.44;38.16;94145.91;4894270;29;20213;-90
2023/07/22 11:09:39;;;;;;;2.58;1.60;;;;;;;26.81;36.28;94055.44;4894587;29;20237;-92
2023/07/22 11:12:07;;;;;;;2.17;1.45;;;;;;;26.85;36.96;94068.81;4893836;29;20335;-89
2023/07/22 11:14:35;;;;;;;3.28;1.80;;;;;;;26.35;38.08;94126.66;4893755;29;20203;-90
2023/07/22 11:17:04;;;;;;;2.22;1.83;;;;;;;26.61;37.91;94110.78;4893683;29;20267;-90
2023/07/22 11:19:33;;;;;;;1.67;1.55;;;;;;;26.34;37.50;94073.09;4894859;29;20736;-90
2023/07/22 11:22:00;;;;;;;1.50;1.40;;;;;;;26.03;38.29;94123.34;4892691;29;20577;-89
2023/07/22 11:24:27;;;;;;;4.10;1.90;;;;;;;25.87;38.15;94110.91;4893629;29;20207;-90
2023/07/22 11:26:54;;;;;;;2.40;2.10;;;;;;;26.07;38.63;94149.88;4898869;29;20631;-90
2023/07/22 11:29:23;;;;;;;2.05;1.40;;;;;;;26.39;38.06;94141.56;4903049;29;20226;-90
2023/07/22 11:31:51;;;;;;;2.05;1.77;;;;;;;26.40;37.53;94098.22;4912756;29;20234;-90
2023/07/22 11:34:22;;;;;;;3.25;1.50;;;;;;;26.39;38.12;94130.22;4896863;29;20733;-90
2023/07/22 11:36:53;;;;;;;8.15;1.70;;;;;;;26.49;38.89;94161.59;4896612;29;20202;-90
2023/07/22 11:39:22;;;;;;;3.92;1.70;;;;;;;26.86;38.48;94154.09;4897651;29;20207;-89
2023/07/22 11:41:54;;;;;;;2.08;1.88;;;;;;;26.71;38.10;94135.03;4902124;29;20229;-91
2023/07/22 11:44:22;;;;;;;1.50;1.40;;;;;;;26.82;36.97;94069.44;4916909;29;20198;-90
2023/07/22 11:46:56;;;;;;;2.92;1.63;;;;;;;27.10;36.73;94011.72;4916665;29;20202;-89
2023/07/22 11:49:30;;;;;;;2.58;1.60;;;;;;;27.03;36.71;94019.34;4916601;29;20320;-90
2023/07/22 11:52:03;;;;;;;2.15;1.52;;;;;;;26.92;36.82;94013.63;4916156;29;20222;-91
2023/07/22 11:54:31;;;;;;;2.15;1.40;;;;;;;26.80;36.02;93987.09;4916687;29;20289;-90
2023/07/22 11:57:00;;;;;;;3.38;1.55;;;;;;;26.87;35.75;93936.44;4916509;29;20285;-90
2023/07/22 11:59:38;;;;;;;2.40;1.63;;;;;;;27.06;35.74;93960.59;4904091;29;20345;-90
2023/07/22 12:02:05;;;;;;;1.92;1.70;;;;;;;26.71;36.11;93938.84;4916641;29;20699;-90
2023/07/22 12:04:43;;;;;;;3.70;1.63;;;;;;;26.89;35.40;93944.81;4916797;29;20258;-91
2023/07/22 12:07:25;;;;;;;2.42;1.73;;;;;;;27.12;35.72;93954.81;4915989;29;20206;-90
2023/07/22 12:09:52;;;;;;;2.60;2.40;;;;;;;27.26;37.01;94014.59;4915973;29;20229;-90
2023/07/22 12:12:19;;;;;;;3.30;2.20;;;;;;;27.43;37.17;94033.78;4915789;29;20747;-89
2023/07/22 12:14:46;;;;;;;2.05;1.92;;;;;;;27.63;36.16;94000.53;4913677;29;20226;-90
2023/07/22 12:17:14;;;;;;;2.38;1.70;;;;;;;27.72;35.43;93966.84;4915900;29;20217;-90
2023/07/22 12:19:55;;;;;;;2.08;1.52;;;;;;;27.77;35.40;93918.28;4915775;29;20217;-91
2023/07/22 12:37:05;;;;;;;1.63;1.52;;;;;;;27.37;33.89;93836.00;4952687;28;20997;-90
2023/07/22 12:39:48;;;;;;;2.30;1.55;;;;;;;27.55;35.15;93895.56;4972443;28;20286;-89
2023/07/22 12:42:47;;;;;;;2.92;2.20;;;;;;;27.60;34.38;93858.38;4972229;28;20219;-89
2023/07/22 12:45:14;;;;;;;1.65;1.55;;;;;;;27.56;33.75;93787.94;4965282;28;20215;-90